Time;durP1;ratioP1;P1;durP2;ratioP2;P2;SDS_P1;SDS_P2;PMS_P1;PMS_P2;Temp;Humidity;BMP_temperature;BMP_pressure;BME280_temperature;BME280_humidity;BME280_pressure;Samples;Min_cycle;Max_cycle;Signal;HPM_P1;HPM_P2
2022/05/09 00:02:14;;;;;;;17.63;11.50;;;;;;;;;;5018275;28;20099;-74
2022/05/09 00:04:41;;;;;;;17.33;11.07;;;;;;;;;;5018339;28;20493;-74
2022/05/09 00:07:07;;;;;;;15.93;11.27;;;;;;;;;;5019771;28;20041;-74
2022/05/09 00:09:33;;;;;;;18.63;11.45;;;;;;;;;;5021171;28;20117;-74
2022/05/09 00:11:59;;;;;;;18.98;12.52;;;;;;;;;;5017540;28;20040;-74
2022/05/09 00:14:26;;;;;;;17.67;11.52;;;;;;;;;;5017146;28;20029;-73
2022/05/09 00:16:52;;;;;;;17.27;11.43;;;;;;;;;;5032050;28;20026;-74
2022/05/09 00:19:20;;;;;;;16.40;11.25;;;;;;;;;;5019941;28;20112;-74
2022/05/09 00:21:47;;;;;;;17.08;11.55;;;;;;;;;;5024690;28;20025;-74
2022/05/09 00:24:14;;;;;;;17.73;11.63;;;;;;;;;;5025734;28;20546;-74
2022/05/09 00:26:42;;;;;;;18.23;11.70;;;;;;;;;;5020169;28;20469;-74
2022/05/09 00:29:09;;;;;;;18.02;12.40;;;;;;;;;;5016574;28;20519;-74
2022/05/09 00:31:36;;;;;;;18.77;12.90;;;;;;;;;;5016644;28;20065;-74
2022/05/09 00:34:05;;;;;;;17.98;12.25;;;;;;;;;;5023193;28;20484;-74
2022/05/09 00:36:31;;;;;;;19.13;13.18;;;;;;;;;;5022487;28;20040;-74
2022/05/09 00:38:59;;;;;;;19.15;13.80;;;;;;;;;;5027604;28;20029;-74
2022/05/09 00:41:34;;;;;;;18.85;13.27;;;;;;;;;;5019289;28;20455;-74
2022/05/09 00:44:01;;;;;;;19.17;13.15;;;;;;;;;;5015451;28;20076;-74
2022/05/09 00:46:28;;;;;;;21.23;14.00;;;;;;;;;;5019241;28;20030;-74
2022/05/09 00:48:55;;;;;;;19.02;13.27;;;;;;;;;;5020241;28;20232;-74
2022/05/09 00:51:23;;;;;;;20.50;13.90;;;;;;;;;;5023888;28;20408;-74
2022/05/09 00:53:52;;;;;;;21.35;12.60;;;;;;;;;;5028605;28;20030;-74
2022/05/09 00:56:25;;;;;;;20.75;13.30;;;;;;;;;;5018010;28;20026;-74
2022/05/09 00:58:54;;;;;;;24.58;13.85;;;;;;;;;;5015778;28;20022;-73
2022/05/09 01:01:21;;;;;;;21.15;15.13;;;;;;;;;;5030166;28;20045;-74
2022/05/09 01:04:06;;;;;;;22.60;14.07;;;;;;;;;;5020540;28;20054;-74
2022/05/09 01:06:33;;;;;;;20.65;13.50;;;;;;;;;;5019429;28;20041;-74
2022/05/09 01:08:59;;;;;;;21.25;14.35;;;;;;;;;;5019524;28;20026;-74
2022/05/09 01:11:25;;;;;;;25.88;14.90;;;;;;;;;;5018232;28;20365;-74
2022/05/09 01:14:03;;;;;;;22.20;14.10;;;;;;;;;;5015853;28;20127;-73
2022/05/09 01:16:30;;;;;;;22.55;14.60;;;;;;;;;;5018477;28;20054;-74
2022/05/09 01:18:58;;;;;;;21.17;14.85;;;;;;;;;;5028355;28;20021;-74
2022/05/09 01:21:29;;;;;;;21.20;14.70;;;;;;;;;;5023529;28;20565;-74
2022/05/09 01:23:56;;;;;;;22.02;14.15;;;;;;;;;;5019126;28;20026;-74
2022/05/09 01:26:22;;;;;;;20.45;14.32;;;;;;;;;;5016278;28;20033;-74
2022/05/09 01:28:48;;;;;;;20.90;14.48;;;;;;;;;;5030656;28;20087;-74
2022/05/09 01:31:16;;;;;;;20.92;14.25;;;;;;;;;;5029659;28;20037;-73
2022/05/09 01:33:46;;;;;;;22.60;13.88;;;;;;;;;;5026775;28;20029;-74
2022/05/09 01:36:12;;;;;;;21.10;13.98;;;;;;;;;;5024731;28;20045;-74
2022/05/09 01:38:47;;;;;;;21.50;14.52;;;;;;;;;;5018779;28;20029;-74
2022/05/09 01:41:13;;;;;;;21.67;13.52;;;;;;;;;;5016051;28;20022;-74
2022/05/09 01:43:44;;;;;;;20.45;14.27;;;;;;;;;;5016608;28;20025;-74
2022/05/09 01:46:15;;;;;;;22.65;14.63;;;;;;;;;;5018164;28;20026;-73
2022/05/09 01:51:27;;;;;;;20.42;13.40;;;;;;;;;;5018580;28;20048;-74
2022/05/09 01:53:53;;;;;;;18.83;13.60;;;;;;;;;;5018702;28;20029;-74
2022/05/09 01:56:23;;;;;;;20.65;13.68;;;;;;;;;;5016621;28;20135;-74
2022/05/09 01:58:49;;;;;;;20.63;13.68;;;;;;;;;;5015351;28;20040;-74
2022/05/09 02:01:19;;;;;;;20.77;13.45;;;;;;;;;;5018015;28;20037;-74
2022/05/09 02:03:46;;;;;;;18.02;13.73;;;;;;;;;;5018552;28;20033;-73
2022/05/09 02:06:13;;;;;;;20.95;13.05;;;;;;;;;;5020934;28;20033;-74
2022/05/09 02:08:39;;;;;;;18.63;13.05;;;;;;;;;;5026456;28;20034;-74
2022/05/09 02:11:05;;;;;;;17.27;12.82;;;;;;;;;;5029426;28;20026;-74
2022/05/09 02:13:32;;;;;;;21.45;12.93;;;;;;;;;;5016287;28;20030;-73
2022/05/09 02:15:58;;;;;;;18.85;13.35;;;;;;;;;;5018317;28;20053;-73
2022/05/09 02:18:24;;;;;;;19.65;13.55;;;;;;;;;;5018127;28;20065;-73
2022/05/09 02:20:51;;;;;;;20.50;13.70;;;;;;;;;;5017042;28;20403;-74
2022/05/09 02:23:17;;;;;;;19.45;14.10;;;;;;;;;;5016354;28;20033;-74
2022/05/09 02:25:45;;;;;;;20.17;13.18;;;;;;;;;;5015204;28;20048;-74
2022/05/09 02:28:12;;;;;;;18.38;13.13;;;;;;;;;;5017371;28;20092;-74
2022/05/09 02:30:38;;;;;;;20.23;13.38;;;;;;;;;;5017973;28;20026;-74
2022/05/09 02:33:05;;;;;;;22.17;13.63;;;;;;;;;;5017841;28;20100;-74
2022/05/09 02:35:31;;;;;;;20.67;13.50;;;;;;;;;;5017892;28;20021;-74
2022/05/09 02:37:57;;;;;;;19.13;14.13;;;;;;;;;;5013675;28;20040;-73
2022/05/09 02:40:26;;;;;;;19.10;13.05;;;;;;;;;;5016914;28;20041;-73
2022/05/09 02:42:57;;;;;;;20.35;14.20;;;;;;;;;;5017896;28;20033;-74
2022/05/09 02:45:23;;;;;;;20.42;13.23;;;;;;;;;;5021881;28;20404;-74
2022/05/09 02:47:49;;;;;;;19.50;13.60;;;;;;;;;;5026043;28;20030;-73
2022/05/09 02:50:16;;;;;;;20.73;14.27;;;;;;;;;;5028987;28;20053;-73
2022/05/09 02:52:42;;;;;;;21.92;14.60;;;;;;;;;;5015102;28;20029;-73
2022/05/09 02:55:09;;;;;;;20.60;13.70;;;;;;;;;;5017047;28;20481;-74
2022/05/09 02:57:36;;;;;;;21.17;13.63;;;;;;;;;;5017506;28;20456;-73
2022/05/09 03:00:03;;;;;;;22.63;15.55;;;;;;;;;;5017403;28;20064;-74
2022/05/09 03:02:30;;;;;;;20.27;14.50;;;;;;;;;;5017387;28;20455;-73
2022/05/09 03:04:56;;;;;;;22.02;14.38;;;;;;;;;;5013375;28;20022;-74
2022/05/09 03:07:22;;;;;;;19.33;13.63;;;;;;;;;;5016436;28;20374;-74
2022/05/09 03:09:49;;;;;;;19.50;13.90;;;;;;;;;;5017411;28;20026;-74
2022/05/09 03:12:19;;;;;;;24.38;15.15;;;;;;;;;;5017342;28;20029;-74
2022/05/09 03:14:46;;;;;;;20.20;13.57;;;;;;;;;;5017011;28;20053;-73
2022/05/09 03:17:12;;;;;;;21.88;14.38;;;;;;;;;;5014396;28;20041;-74
2022/05/09 03:19:38;;;;;;;20.02;13.68;;;;;;;;;;5014959;28;20104;-73
2022/05/09 03:22:05;;;;;;;24.75;15.20;;;;;;;;;;5015429;28;20065;-74
2022/05/09 03:24:31;;;;;;;21.35;14.25;;;;;;;;;;5021464;28;20104;-74
2022/05/09 03:26:59;;;;;;;19.30;14.88;;;;;;;;;;5024713;28;20021;-74
2022/05/09 03:29:26;;;;;;;22.30;15.63;;;;;;;;;;5014256;28;20040;-74
2022/05/09 03:31:52;;;;;;;23.50;15.30;;;;;;;;;;5028740;28;20405;-74
2022/05/09 03:34:19;;;;;;;22.45;15.38;;;;;;;;;;5016512;28;20083;-74
2022/05/09 03:36:45;;;;;;;19.83;13.88;;;;;;;;;;5016702;28;20540;-74
2022/05/09 03:39:11;;;;;;;22.38;15.18;;;;;;;;;;5016994;28;20109;-73
2022/05/09 03:41:38;;;;;;;27.90;15.77;;;;;;;;;;5017058;28;20032;-74
2022/05/09 03:44:05;;;;;;;21.63;15.30;;;;;;;;;;5013165;28;20038;-73
2022/05/09 03:46:31;;;;;;;22.92;15.27;;;;;;;;;;5015376;28;20040;-74
2022/05/09 03:48:57;;;;;;;23.20;15.32;;;;;;;;;;5016988;28;20038;-74
2022/05/09 03:51:23;;;;;;;24.50;14.88;;;;;;;;;;5016504;28;20069;-74
2022/05/09 03:53:50;;;;;;;25.15;14.80;;;;;;;;;;5016626;28;20055;-73
2022/05/09 03:56:16;;;;;;;21.75;15.27;;;;;;;;;;5014724;28;20026;-74
2022/05/09 03:58:42;;;;;;;19.52;14.77;;;;;;;;;;5014361;28;20030;-74
2022/05/09 04:01:08;;;;;;;21.75;15.15;;;;;;;;;;5016313;28;20026;-74
2022/05/09 04:03:34;;;;;;;22.58;15.65;;;;;;;;;;5022318;28;20510;-73
2022/05/09 04:06:01;;;;;;;22.85;15.13;;;;;;;;;;5023666;28;20049;-74
2022/05/09 04:08:27;;;;;;;22.80;15.05;;;;;;;;;;5013970;28;20460;-74
2022/05/09 04:10:55;;;;;;;20.98;15.07;;;;;;;;;;5028220;28;20117;-73
2022/05/09 04:13:21;;;;;;;25.92;14.52;;;;;;;;;;5016270;28;20053;-74
2022/05/09 04:18:40;;;;;;;23.25;15.40;;;;;;;;;;5016832;28;20052;-73
2022/05/09 04:21:06;;;;;;;22.90;15.52;;;;;;;;;;5016360;28;20050;-74
2022/05/09 04:23:33;;;;;;;21.67;15.68;;;;;;;;;;5016736;28;20045;-74
2022/05/09 04:25:59;;;;;;;20.35;14.85;;;;;;;;;;5012495;28;20033;-73
2022/05/09 04:28:26;;;;;;;23.95;15.52;;;;;;;;;;5015969;28;20034;-74
2022/05/09 04:30:52;;;;;;;23.52;15.82;;;;;;;;;;5016685;28;20037;-74
2022/05/09 04:33:20;;;;;;;23.08;15.88;;;;;;;;;;5016364;28;20509;-74
2022/05/09 04:35:47;;;;;;;21.67;15.25;;;;;;;;;;5017751;28;20480;-74
2022/05/09 04:38:21;;;;;;;23.77;15.38;;;;;;;;;;5017479;28;20033;-74
2022/05/09 04:40:51;;;;;;;;;;;;;;;;;;5017226;28;20508;-74
2022/05/09 04:43:18;;;;;;;23.25;16.15;;;;;;;;;;5030453;28;19912;-73
2022/05/09 04:45:44;;;;;;;25.33;15.68;;;;;;;;;;5021371;28;20096;-74
2022/05/09 04:48:10;;;;;;;25.17;16.23;;;;;;;;;;5021899;28;20123;-73
2022/05/09 04:50:36;;;;;;;22.73;15.32;;;;;;;;;;5030456;28;20017;-74
2022/05/09 04:53:02;;;;;;;26.02;16.38;;;;;;;;;;5015640;28;20037;-74
2022/05/09 04:55:29;;;;;;;24.95;17.10;;;;;;;;;;5018876;28;20026;-74
2022/05/09 04:57:56;;;;;;;24.63;16.38;;;;;;;;;;5019691;28;20098;-74
2022/05/09 05:00:25;;;;;;;27.23;14.77;;;;;;;;;;5019727;28;20026;-74
2022/05/09 05:02:51;;;;;;;19.73;13.48;;;;;;;;;;5019759;28;20025;-74
2022/05/09 05:05:17;;;;;;;18.80;13.18;;;;;;;;;;5017081;28;20577;-74
2022/05/09 05:07:43;;;;;;;18.70;12.93;;;;;;;;;;5017089;28;20460;-73
2022/05/09 05:10:10;;;;;;;19.95;13.85;;;;;;;;;;5018824;28;20021;-74
2022/05/09 05:12:37;;;;;;;18.98;13.25;;;;;;;;;;5019502;28;20030;-74
2022/05/09 05:15:03;;;;;;;21.60;14.20;;;;;;;;;;5019319;28;20046;-73
2022/05/09 05:17:29;;;;;;;19.27;14.07;;;;;;;;;;5018855;28;20030;-73
2022/05/09 05:19:56;;;;;;;18.90;13.77;;;;;;;;;;5015812;28;20044;-71
2022/05/09 05:22:22;;;;;;;21.50;13.52;;;;;;;;;;5029774;28;20096;-72
2022/05/09 05:24:52;;;;;;;22.35;14.00;;;;;;;;;;5020317;28;20034;-73
2022/05/09 05:27:21;;;;;;;20.77;13.25;;;;;;;;;;5022439;28;20080;-70
2022/05/09 05:29:47;;;;;;;22.70;14.52;;;;;;;;;;5028481;28;20038;-70
2022/05/09 05:32:27;;;;;;;18.15;12.50;;;;;;;;;;5016235;28;20026;-71
2022/05/09 05:34:53;;;;;;;20.80;13.82;;;;;;;;;;5015760;28;20022;-70
2022/05/09 05:37:19;;;;;;;21.88;13.40;;;;;;;;;;5018384;28;20152;-71
2022/05/09 05:39:46;;;;;;;20.38;13.73;;;;;;;;;;5018921;28;20036;-71
2022/05/09 05:42:14;;;;;;;19.60;13.02;;;;;;;;;;5019032;28;20033;-70
2022/05/09 05:44:41;;;;;;;19.30;13.25;;;;;;;;;;5019022;28;20030;-70
2022/05/09 05:47:08;;;;;;;19.63;13.65;;;;;;;;;;5014203;28;20397;-70
2022/05/09 05:49:35;;;;;;;22.80;13.95;;;;;;;;;;5016628;28;20030;-71
2022/05/09 05:52:03;;;;;;;20.30;13.52;;;;;;;;;;5019038;28;20033;-70
2022/05/09 05:54:34;;;;;;;19.65;13.55;;;;;;;;;;5018769;28;20038;-70
2022/05/09 05:57:01;;;;;;;22.30;12.55;;;;;;;;;;5018850;28;20392;-70
2022/05/09 05:59:27;;;;;;;19.05;12.80;;;;;;;;;;5015810;28;20025;-69
2022/05/09 06:01:53;;;;;;;21.25;13.88;;;;;;;;;;5029938;28;20045;-71
2022/05/09 06:04:20;;;;;;;20.88;13.30;;;;;;;;;;5017313;28;20485;-72
2022/05/09 06:06:46;;;;;;;17.92;12.45;;;;;;;;;;5023725;28;20029;-72
2022/05/09 06:09:12;;;;;;;19.35;12.43;;;;;;;;;;5024215;28;20034;-72
2022/05/09 06:11:40;;;;;;;16.75;12.38;;;;;;;;;;5018345;28;20044;-72
2022/05/09 06:14:07;;;;;;;20.20;12.23;;;;;;;;;;5014671;28;20041;-72
2022/05/09 06:16:33;;;;;;;24.58;12.88;;;;;;;;;;5016041;28;20058;-72
2022/05/09 06:19:00;;;;;;;22.60;13.70;;;;;;;;;;5018598;28;20038;-75
2022/05/09 06:21:27;;;;;;;22.02;12.95;;;;;;;;;;5017730;28;20050;-71
2022/05/09 06:23:53;;;;;;;37.47;15.27;;;;;;;;;;5017716;28;20424;-71
2022/05/09 06:26:21;;;;;;;22.55;14.10;;;;;;;;;;5028787;28;20480;-72
2022/05/09 06:28:47;;;;;;;24.17;14.05;;;;;;;;;;5014775;28;20519;-72
2022/05/09 06:31:13;;;;;;;19.92;12.45;;;;;;;;;;5013308;28;20022;-72
2022/05/09 06:33:39;;;;;;;23.58;14.05;;;;;;;;;;5017501;28;20029;-72
2022/05/09 06:36:05;;;;;;;21.85;13.52;;;;;;;;;;5017425;28;20497;-71
2022/05/09 06:38:33;;;;;;;18.73;13.40;;;;;;;;;;5014681;28;20101;-72
2022/05/09 06:41:01;;;;;;;23.17;13.82;;;;;;;;;;5013450;28;20504;-72
2022/05/09 06:43:28;;;;;;;22.70;14.05;;;;;;;;;;5016123;28;20516;-73
2022/05/09 06:45:54;;;;;;;27.65;14.32;;;;;;;;;;5024949;28;20512;-72
2022/05/09 06:48:20;;;;;;;20.88;13.30;;;;;;;;;;5022346;28;20136;-72
2022/05/09 06:50:46;;;;;;;26.58;14.70;;;;;;;;;;5017675;28;20029;-75
2022/05/09 06:53:13;;;;;;;18.98;12.95;;;;;;;;;;5014700;28;20507;-72
2022/05/09 06:55:39;;;;;;;26.10;14.18;;;;;;;;;;5015301;28;20049;-73
2022/05/09 06:58:09;;;;;;;20.73;14.07;;;;;;;;;;5017296;28;20088;-76
2022/05/09 07:00:35;;;;;;;21.50;13.82;;;;;;;;;;5016900;28;20041;-73
2022/05/09 07:03:01;;;;;;;20.83;14.20;;;;;;;;;;5017425;28;20454;-73
2022/05/09 07:05:27;;;;;;;22.27;14.48;;;;;;;;;;5015170;28;20040;-73
2022/05/09 07:07:53;;;;;;;20.15;12.73;;;;;;;;;;5013768;28;20022;-74
2022/05/09 07:10:20;;;;;;;22.92;14.13;;;;;;;;;;5016869;28;20026;-73
2022/05/09 07:12:47;;;;;;;24.77;13.98;;;;;;;;;;5017189;28;20451;-73
2022/05/09 07:15:14;;;;;;;22.58;14.07;;;;;;;;;;5016833;28;20104;-73
2022/05/09 07:17:40;;;;;;;20.83;13.23;;;;;;;;;;5015448;28;20041;-73
2022/05/09 07:20:07;;;;;;;22.33;14.02;;;;;;;;;;5029419;28;20113;-72
2022/05/09 07:22:33;;;;;;;25.25;14.80;;;;;;;;;;5028216;28;20025;-75
2022/05/09 07:24:59;;;;;;;26.33;15.93;;;;;;;;;;5017405;28;20484;-75
2022/05/09 07:27:25;;;;;;;27.10;17.10;;;;;;;;;;5016979;28;20405;-73
2022/05/09 07:29:51;;;;;;;28.05;16.08;;;;;;;;;;5015410;28;20053;-73
2022/05/09 07:32:17;;;;;;;20.67;13.68;;;;;;;;;;5009818;28;20037;-73
2022/05/09 07:34:48;;;;;;;19.17;13.13;;;;;;;;;;5023932;28;20083;-73
2022/05/09 07:37:14;;;;;;;21.13;13.27;;;;;;;;;;5013033;28;20058;-73
2022/05/09 07:39:40;;;;;;;20.73;13.43;;;;;;;;;;5013832;28;20584;-74
2022/05/09 07:42:07;;;;;;;22.08;13.43;;;;;;;;;;5028675;28;20088;-73
2022/05/09 07:44:33;;;;;;;23.20;12.90;;;;;;;;;;5013763;28;20432;-75
2022/05/09 07:46:59;;;;;;;23.55;13.38;;;;;;;;;;5009982;28;20401;-73
2022/05/09 07:49:25;;;;;;;26.90;14.23;;;;;;;;;;5011398;28;20045;-73
2022/05/09 07:51:51;;;;;;;23.50;14.25;;;;;;;;;;5011929;28;20037;-72
2022/05/09 07:54:17;;;;;;;21.35;13.88;;;;;;;;;;5013637;28;20120;-74
2022/05/09 07:56:43;;;;;;;21.95;12.73;;;;;;;;;;5012163;28;20091;-73
2022/05/09 07:59:09;;;;;;;19.98;13.57;;;;;;;;;;5025220;28;20112;-73
2022/05/09 08:01:36;;;;;;;23.98;13.60;;;;;;;;;;5017272;28;20087;-73
2022/05/09 08:04:02;;;;;;;21.88;12.60;;;;;;;;;;5023020;28;20029;-73
2022/05/09 08:06:28;;;;;;;21.23;13.70;;;;;;;;;;5017064;28;20489;-73
2022/05/09 08:08:54;;;;;;;20.88;11.77;;;;;;;;;;5012731;28;20520;-73
2022/05/09 08:11:21;;;;;;;17.58;13.00;;;;;;;;;;5014769;28;20022;-73
2022/05/09 08:13:47;;;;;;;21.55;11.93;;;;;;;;;;5014731;28;20030;-73
2022/05/09 08:16:14;;;;;;;21.33;12.65;;;;;;;;;;5017007;28;20085;-73
2022/05/09 08:18:40;;;;;;;17.23;11.30;;;;;;;;;;5019632;28;20041;-73
2022/05/09 08:21:09;;;;;;;16.95;10.57;;;;;;;;;;5017428;28;20038;-74
2022/05/09 08:23:35;;;;;;;18.85;11.38;;;;;;;;;;5017289;28;20531;-74
2022/05/09 08:26:03;;;;;;;18.55;10.20;;;;;;;;;;5021691;28;20161;-73
2022/05/09 08:28:29;;;;;;;13.43;8.60;;;;;;;;;;5020277;28;20038;-73
2022/05/09 08:30:55;;;;;;;14.40;9.05;;;;;;;;;;5021069;28;20026;-74
2022/05/09 08:33:23;;;;;;;14.05;8.98;;;;;;;;;;5020746;28;20034;-74
2022/05/09 08:35:51;;;;;;;14.38;8.68;;;;;;;;;;5015778;28;20530;-74
2022/05/09 08:38:18;;;;;;;13.63;8.80;;;;;;;;;;5013122;28;20045;-74
2022/05/09 08:40:53;;;;;;;14.32;9.20;;;;;;;;;;5011914;28;20032;-73
2022/05/09 08:43:29;;;;;;;13.65;9.15;;;;;;;;;;5014909;28;20168;-74
2022/05/09 08:46:13;;;;;;;15.00;9.55;;;;;;;;;;5015169;28;20081;-74
2022/05/09 08:48:42;;;;;;;13.95;9.07;;;;;;;;;;5030470;28;20042;-73
2022/05/09 08:51:29;;;;;;;15.52;9.50;;;;;;;;;;5014849;28;20037;-74
2022/05/09 08:53:57;;;;;;;12.00;8.70;;;;;;;;;;5015325;28;20524;-74
2022/05/09 08:56:24;;;;;;;14.27;8.75;;;;;;;;;;5013237;28;20075;-74
2022/05/09 08:59:00;;;;;;;14.48;9.13;;;;;;;;;;5012701;28;20056;-74
2022/05/09 09:01:44;;;;;;;12.57;8.63;;;;;;;;;;5014923;28;20046;-74
2022/05/09 09:04:29;;;;;;;18.50;9.45;;;;;;;;;;5025298;28;20112;-74
2022/05/09 09:06:56;;;;;;;14.48;9.43;;;;;;;;;;5015340;28;20069;-73
2022/05/09 09:09:51;;;;;;;13.35;8.88;;;;;;;;;;5014705;28;20046;-74
2022/05/09 09:12:28;;;;;;;12.07;8.88;;;;;;;;;;5010907;28;20052;-74
2022/05/09 09:14:57;;;;;;;15.52;9.45;;;;;;;;;;5015419;28;20136;-74
2022/05/09 09:17:24;;;;;;;11.85;8.55;;;;;;;;;;5026755;28;20032;-73
2022/05/09 09:19:56;;;;;;;14.07;9.65;;;;;;;;;;5011531;28;20037;-73
2022/05/09 09:22:26;;;;;;;13.10;9.32;;;;;;;;;;5024062;28;20124;-74
2022/05/09 09:25:10;;;;;;;13.00;9.05;;;;;;;;;;5015162;28;20065;-74
2022/05/09 09:27:44;;;;;;;13.88;9.70;;;;;;;;;;5014709;28;20140;-74
2022/05/09 09:30:13;;;;;;;18.67;8.98;;;;;;;;;;5014517;28;20026;-74
2022/05/09 09:32:41;;;;;;;14.40;9.80;;;;;;;;;;5014358;28;20075;-74
2022/05/09 09:35:13;;;;;;;16.33;10.23;;;;;;;;;;5011662;28;20030;-74
2022/05/09 09:37:39;;;;;;;14.52;9.57;;;;;;;;;;5013073;28;20159;-71
2022/05/09 09:40:06;;;;;;;14.68;9.40;;;;;;;;;;5012859;28;20029;-74
2022/05/09 09:42:32;;;;;;;12.88;9.25;;;;;;;;;;5014355;28;20030;-73
2022/05/09 09:45:03;;;;;;;14.48;9.43;;;;;;;;;;5015223;28;20069;-73
2022/05/09 09:47:30;;;;;;;11.65;9.27;;;;;;;;;;5017527;28;20033;-72
2022/05/09 09:50:15;;;;;;;13.48;9.73;;;;;;;;;;5014723;28;20144;-74
2022/05/09 09:52:48;;;;;;;15.77;9.40;;;;;;;;;;5029805;28;20120;-75
2022/05/09 09:55:26;;;;;;;18.85;9.75;;;;;;;;;;5017592;28;20022;-73
2022/05/09 09:57:53;;;;;;;13.88;9.35;;;;;;;;;;5026082;28;20566;-73
2022/05/09 10:00:34;;;;;;;12.75;9.95;;;;;;;;;;5023886;28;20033;-73
2022/05/09 10:03:19;;;;;;;15.93;9.15;;;;;;;;;;5018451;28;20057;-72
2022/05/09 10:05:46;;;;;;;13.25;9.90;;;;;;;;;;5018508;28;20509;-73
2022/05/09 10:08:38;;;;;;;12.45;9.45;;;;;;;;;;5015029;28;20091;-74
2022/05/09 10:11:19;;;;;;;12.35;9.40;;;;;;;;;;5012629;28;20592;-73
2022/05/09 10:13:56;;;;;;;16.17;10.02;;;;;;;;;;5015733;28;20362;-73
2022/05/09 10:16:33;;;;;;;15.48;10.43;;;;;;;;;;5017176;28;20046;-73
2022/05/09 10:19:04;;;;;;;11.15;8.98;;;;;;;;;;5027072;28;20460;-73
2022/05/09 10:27:09;;;;;;;15.48;10.65;;;;;;;;;;5017991;28;20092;-73
2022/05/09 10:29:37;;;;;;;16.08;11.50;;;;;;;;;;5016334;28;20114;-73
2022/05/09 10:32:05;;;;;;;15.18;10.27;;;;;;;;;;5015241;28;20029;-72
2022/05/09 10:34:41;;;;;;;14.20;10.13;;;;;;;;;;5028557;28;20038;-72
2022/05/09 10:37:46;;;;;;;14.32;9.30;;;;;;;;;;5022900;28;20113;-72
2022/05/09 10:40:15;;;;;;;11.55;8.82;;;;;;;;;;4974685;28;20045;-72
2022/05/09 10:42:46;;;;;;;12.70;9.07;;;;;;;;;;4984260;28;20069;-72
2022/05/09 10:45:24;;;;;;;18.40;9.90;;;;;;;;;;4981505;28;20042;-72
2022/05/09 10:47:57;;;;;;;15.65;10.50;;;;;;;;;;4976994;28;20066;-72
2022/05/09 10:50:29;;;;;;;11.13;8.50;;;;;;;;;;4986939;28;20045;-72
2022/05/09 10:53:07;;;;;;;10.93;8.98;;;;;;;;;;4986638;28;20041;-72
2022/05/09 10:55:40;;;;;;;15.13;9.15;;;;;;;;;;4980717;28;20071;-72
2022/05/09 10:58:24;;;;;;;13.88;9.05;;;;;;;;;;4987205;28;20049;-72
2022/05/09 11:00:52;;;;;;;11.95;7.90;;;;;;;;;;4986173;28;20501;-72
2022/05/09 11:03:35;;;;;;;11.80;7.70;;;;;;;;;;4986297;28;20138;-72
2022/05/09 11:06:16;;;;;;;12.13;8.07;;;;;;;;;;4985631;28;20055;-72
2022/05/09 11:08:48;;;;;;;14.27;8.38;;;;;;;;;;4984802;28;20085;-72
2022/05/09 11:11:29;;;;;;;10.20;8.18;;;;;;;;;;4987249;28;20456;-72
2022/05/09 11:14:05;;;;;;;11.05;8.10;;;;;;;;;;5010256;28;20085;-73
2022/05/09 11:16:34;;;;;;;10.02;7.75;;;;;;;;;;5024167;28;20128;-73
2022/05/09 11:19:20;;;;;;;12.38;8.68;;;;;;;;;;5013861;28;20060;-73
2022/05/09 11:21:55;;;;;;;11.10;7.95;;;;;;;;;;5013386;28;20382;-73
2022/05/09 11:24:27;;;;;;;12.43;8.10;;;;;;;;;;5013389;28;20026;-73
2022/05/09 11:27:12;;;;;;;12.95;8.35;;;;;;;;;;5014111;28;20041;-73
2022/05/09 11:29:38;;;;;;;12.25;7.60;;;;;;;;;;5014026;28;20045;-72
2022/05/09 11:32:16;;;;;;;9.35;7.47;;;;;;;;;;5009287;28;20021;-72
2022/05/09 11:34:43;;;;;;;10.48;7.65;;;;;;;;;;5010976;28;20040;-72
2022/05/09 11:37:12;;;;;;;11.80;8.25;;;;;;;;;;5013398;28;20034;-73
2022/05/09 11:39:44;;;;;;;10.68;7.85;;;;;;;;;;5018641;28;20033;-73
2022/05/09 11:45:13;;;;;;;12.23;6.80;;;;;;;;;;5012905;28;20567;-78
2022/05/09 11:47:56;;;;;;;10.57;7.32;;;;;;;;;;5012390;28;20041;-74
2022/05/09 11:50:24;;;;;;;12.25;7.30;;;;;;;;;;5020585;28;20029;-75
2022/05/09 11:52:52;;;;;;;8.35;6.70;;;;;;;;;;5006721;28;20026;-74
2022/05/09 11:55:22;;;;;;;11.45;7.00;;;;;;;;;;5017136;28;20124;-74
2022/05/09 11:57:50;;;;;;;13.13;7.25;;;;;;;;;;5012103;28;20018;-74
2022/05/09 12:00:28;;;;;;;8.40;6.45;;;;;;;;;;5011924;28;20034;-74
2022/05/09 12:02:56;;;;;;;10.35;7.05;;;;;;;;;;5017971;28;20040;-75
2022/05/09 12:05:25;;;;;;;10.73;6.72;;;;;;;;;;5008169;28;20377;-74
2022/05/09 12:07:55;;;;;;;9.40;6.68;;;;;;;;;;5019959;28;20116;-73
2022/05/09 12:10:28;;;;;;;10.20;6.75;;;;;;;;;;5020768;28;20049;-75
2022/05/09 12:12:56;;;;;;;10.55;6.53;;;;;;;;;;5017646;28;20045;-75
2022/05/09 12:15:22;;;;;;;10.15;6.85;;;;;;;;;;5018250;28;20052;-74
2022/05/09 12:18:00;;;;;;;11.20;7.38;;;;;;;;;;5017895;28;20026;-74
2022/05/09 12:20:27;;;;;;;10.95;7.40;;;;;;;;;;5012113;28;20018;-74
2022/05/09 12:23:00;;;;;;;10.25;6.38;;;;;;;;;;5005812;28;20057;-74
2022/05/09 12:25:44;;;;;;;10.68;7.25;;;;;;;;;;5019359;28;20025;-74
2022/05/09 12:28:19;;;;;;;8.90;7.30;;;;;;;;;;5019599;28;20520;-74
2022/05/09 12:30:59;;;;;;;9.48;7.20;;;;;;;;;;5011339;28;20130;-75
2022/05/09 12:33:36;;;;;;;12.32;7.55;;;;;;;;;;5008738;28;20026;-74
2022/05/09 12:36:08;;;;;;;12.50;6.93;;;;;;;;;;5008688;28;20052;-74
2022/05/09 12:38:36;;;;;;;9.70;7.22;;;;;;;;;;5021807;28;20435;-74
2022/05/09 12:41:11;;;;;;;10.27;7.03;;;;;;;;;;5004853;28;20509;-74
2022/05/09 12:43:38;;;;;;;13.35;7.50;;;;;;;;;;5019960;28;20116;-74
2022/05/09 12:46:07;;;;;;;10.10;7.65;;;;;;;;;;5018758;28;20068;-74
2022/05/09 12:48:36;;;;;;;11.25;7.65;;;;;;;;;;5017129;28;20041;-74
2022/05/09 12:51:06;;;;;;;10.40;7.50;;;;;;;;;;5016478;28;20064;-74
2022/05/09 12:53:33;;;;;;;10.32;8.23;;;;;;;;;;5016214;28;20026;-74
2022/05/09 12:55:59;;;;;;;11.68;8.40;;;;;;;;;;5003431;28;20123;-74
2022/05/09 12:58:27;;;;;;;10.55;8.40;;;;;;;;;;5012170;28;20061;-74
2022/05/09 13:01:03;;;;;;;13.45;8.65;;;;;;;;;;5019865;28;20033;-74
2022/05/09 13:03:29;;;;;;;10.35;7.53;;;;;;;;;;5020372;28;20041;-74
2022/05/09 13:05:55;;;;;;;9.95;7.45;;;;;;;;;;5021549;28;20033;-74
2022/05/09 13:08:21;;;;;;;12.40;8.60;;;;;;;;;;5023459;28;20036;-74
2022/05/09 13:10:50;;;;;;;11.60;7.70;;;;;;;;;;5008979;28;20029;-74
2022/05/09 13:13:30;;;;;;;10.40;7.85;;;;;;;;;;5020024;28;20177;-74
2022/05/09 13:15:56;;;;;;;12.07;8.25;;;;;;;;;;5020283;28;20050;-74
2022/05/09 13:18:25;;;;;;;12.48;8.05;;;;;;;;;;5015475;28;20405;-74
2022/05/09 13:20:53;;;;;;;9.57;7.70;;;;;;;;;;5015858;28;20037;-74
2022/05/09 13:23:25;;;;;;;13.27;8.90;;;;;;;;;;5020021;28;20022;-75
2022/05/09 13:25:53;;;;;;;13.15;8.82;;;;;;;;;;5012947;28;20107;-74
2022/05/09 13:28:21;;;;;;;13.48;8.90;;;;;;;;;;5015767;28;20038;-74
2022/05/09 13:30:49;;;;;;;11.38;9.20;;;;;;;;;;5022147;28;20026;-74
2022/05/09 13:33:16;;;;;;;13.77;9.45;;;;;;;;;;5022101;28;20046;-74
2022/05/09 13:35:46;;;;;;;19.15;8.45;;;;;;;;;;5013683;28;20022;-74
2022/05/09 13:38:17;;;;;;;10.40;8.32;;;;;;;;;;5027207;28;20026;-75
2022/05/09 13:40:43;;;;;;;13.02;9.15;;;;;;;;;;5013228;28;20113;-74
2022/05/09 13:43:09;;;;;;;12.07;8.93;;;;;;;;;;5025597;28;20037;-75
2022/05/09 13:45:35;;;;;;;10.50;7.85;;;;;;;;;;5018786;28;20029;-74
2022/05/09 13:48:06;;;;;;;10.80;8.30;;;;;;;;;;5030731;28;20489;-75
2022/05/09 13:50:34;;;;;;;12.77;8.25;;;;;;;;;;5015007;28;20400;-74
2022/05/09 13:53:05;;;;;;;12.05;9.43;;;;;;;;;;5011252;28;20523;-74
2022/05/09 13:55:32;;;;;;;12.38;8.93;;;;;;;;;;5009004;28;20029;-74
2022/05/09 13:58:00;;;;;;;12.88;8.73;;;;;;;;;;5015945;28;20053;-74
2022/05/09 14:00:29;;;;;;;14.00;8.40;;;;;;;;;;5015113;28;20507;-74
2022/05/09 14:02:58;;;;;;;13.15;9.18;;;;;;;;;;5015306;28;20037;-74
2022/05/09 14:05:26;;;;;;;11.82;8.43;;;;;;;;;;5013341;28;20091;-74
2022/05/09 14:07:58;;;;;;;12.77;9.02;;;;;;;;;;5011552;28;20084;-75
2022/05/09 14:10:44;;;;;;;13.35;9.13;;;;;;;;;;5014688;28;20042;-74
2022/05/09 14:13:29;;;;;;;11.00;8.45;;;;;;;;;;5024968;28;20117;-75
2022/05/09 14:16:07;;;;;;;10.93;8.50;;;;;;;;;;5014578;28;20046;-74
2022/05/09 14:18:36;;;;;;;11.70;8.30;;;;;;;;;;5020285;28;20064;-74
2022/05/09 14:21:07;;;;;;;12.55;8.73;;;;;;;;;;5022816;28;20034;-74
2022/05/09 14:23:34;;;;;;;17.25;9.68;;;;;;;;;;5012351;28;20034;-74
2022/05/09 14:31:53;;;;;;;15.30;8.90;;;;;;;;;;5026438;28;20080;-73
2022/05/09 14:34:25;;;;;;;13.90;8.87;;;;;;;;;;5013888;28;20041;-74
2022/05/09 14:37:11;;;;;;;13.80;9.43;;;;;;;;;;5021732;28;20057;-75
2022/05/09 14:39:42;;;;;;;10.98;8.73;;;;;;;;;;5008461;28;20415;-74
2022/05/09 14:42:11;;;;;;;16.55;9.65;;;;;;;;;;5016940;28;20575;-73
2022/05/09 14:44:37;;;;;;;13.73;9.25;;;;;;;;;;5009793;28;20037;-73
2022/05/09 14:47:05;;;;;;;13.55;8.30;;;;;;;;;;5008121;28;20061;-74
2022/05/09 14:49:33;;;;;;;10.38;7.75;;;;;;;;;;5019000;28;20120;-73
2022/05/09 14:52:05;;;;;;;14.65;7.85;;;;;;;;;;5018657;28;20240;-74
2022/05/09 14:54:39;;;;;;;9.15;7.10;;;;;;;;;;5018124;28;20040;-74
2022/05/09 14:59:51;;;;;;;10.23;6.40;;;;;;;;;;5009876;28;20252;-73